sensor_id;sensor_type;location;lat;lon;timestamp;pressure;altitude;pressure_sealevel;temperature;humidity
36932;BME280;22847;42.654;23.370;2022-07-29T00:02:08;94767.59;;;20.65;71.25
36932;BME280;22847;42.654;23.370;2022-07-29T00:04:35;94772.44;;;20.94;70.90
36932;BME280;22847;42.654;23.370;2022-07-29T00:07:00;94626.34;;;20.25;70.57
36932;BME280;22847;42.654;23.370;2022-07-29T00:09:26;94844.03;;;21.47;70.23
36932;BME280;22847;42.654;23.370;2022-07-29T00:11:52;94815.22;;;21.57;71.42
36932;BME280;22847;42.654;23.370;2022-07-29T00:14:18;94803.97;;;21.62;68.22
36932;BME280;22847;42.654;23.370;2022-07-29T00:16:43;94835.00;;;21.74;68.03
36932;BME280;22847;42.654;23.370;2022-07-29T00:19:09;94807.97;;;21.84;68.46
36932;BME280;22847;42.654;23.370;2022-07-29T00:21:34;94804.72;;;21.82;67.61
36932;BME280;22847;42.654;23.370;2022-07-29T00:23:59;94853.78;;;22.31;67.06
36932;BME280;22847;42.654;23.370;2022-07-29T00:26:25;94866.88;;;22.25;66.95
36932;BME280;22847;42.654;23.370;2022-07-29T00:28:52;94846.81;;;21.78;68.19
36932;BME280;22847;42.654;23.370;2022-07-29T00:31:18;94848.06;;;21.69;69.04
36932;BME280;22847;42.654;23.370;2022-07-29T00:33:43;94841.94;;;21.69;69.18
36932;BME280;22847;42.654;23.370;2022-07-29T00:36:09;94762.44;;;21.10;69.66
36932;BME280;22847;42.654;23.370;2022-07-29T00:38:34;94846.59;;;21.80;68.84
36932;BME280;22847;42.654;23.370;2022-07-29T00:40:59;94658.66;;;21.00;67.99
36932;BME280;22847;42.654;23.370;2022-07-29T00:43:25;94643.78;;;20.85;70.07
36932;BME280;22847;42.654;23.370;2022-07-29T00:45:50;94849.41;;;22.43;66.81
36932;BME280;22847;42.654;23.370;2022-07-29T00:48:16;94801.03;;;21.90;66.87
36932;BME280;22847;42.654;23.370;2022-07-29T00:50:41;94851.00;;;22.12;67.84
36932;BME280;22847;42.654;23.370;2022-07-29T00:53:07;94859.66;;;22.39;66.74
36932;BME280;22847;42.654;23.370;2022-07-29T00:55:33;94877.38;;;22.52;66.11
36932;BME280;22847;42.654;23.370;2022-07-29T00:57:59;94668.34;;;21.39;65.57
36932;BME280;22847;42.654;23.370;2022-07-29T01:00:26;94844.97;;;22.75;64.87
36932;BME280;22847;42.654;23.370;2022-07-29T01:02:52;94810.44;;;22.30;65.18
36932;BME280;22847;42.654;23.370;2022-07-29T01:05:20;94856.44;;;22.68;65.24
36932;BME280;22847;42.654;23.370;2022-07-29T01:07:48;94629.25;;;21.08;66.13
36932;BME280;22847;42.654;23.370;2022-07-29T01:10:15;94652.47;;;21.12;66.92
36932;BME280;22847;42.654;23.370;2022-07-29T01:12:44;94814.13;;;22.29;66.01
36932;BME280;22847;42.654;23.370;2022-07-29T01:15:11;94841.97;;;22.58;65.59
36932;BME280;22847;42.654;23.370;2022-07-29T01:23:19;94873.56;;;22.79;65.20
36932;BME280;22847;42.654;23.370;2022-07-29T01:26:00;94727.38;;;22.16;64.61
36932;BME280;22847;42.654;23.370;2022-07-29T01:31:13;94837.50;;;22.90;65.10
36932;BME280;22847;42.654;23.370;2022-07-29T01:33:43;94838.97;;;22.86;65.03
36932;BME280;22847;42.654;23.370;2022-07-29T01:36:25;94645.78;;;21.61;65.29
36932;BME280;22847;42.654;23.370;2022-07-29T01:39:19;94798.38;;;22.65;65.13
36932;BME280;22847;42.654;23.370;2022-07-29T01:41:55;94751.66;;;22.20;65.31
36932;BME280;22847;42.654;23.370;2022-07-29T01:44:30;94712.16;;;21.99;65.07
36932;BME280;22847;42.654;23.370;2022-07-29T01:46:59;94825.56;;;22.67;64.83
36932;BME280;22847;42.654;23.370;2022-07-29T01:49:28;94828.94;;;22.12;67.20
36932;BME280;22847;42.654;23.370;2022-07-29T01:52:05;94781.56;;;22.09;68.34
36932;BME280;22847;42.654;23.370;2022-07-29T01:54:46;94809.56;;;22.05;69.74
36932;BME280;22847;42.654;23.370;2022-07-29T01:57:15;94763.44;;;21.99;68.98
36932;BME280;22847;42.654;23.370;2022-07-29T01:59:46;94755.47;;;21.99;69.13
36932;BME280;22847;42.654;23.370;2022-07-29T02:02:14;94814.66;;;22.44;68.90
36932;BME280;22847;42.654;23.370;2022-07-29T02:04:42;94827.22;;;22.31;68.42
36932;BME280;22847;42.654;23.370;2022-07-29T02:07:11;94819.28;;;22.24;68.56
36932;BME280;22847;42.654;23.370;2022-07-29T02:09:39;94814.56;;;22.95;68.99
36932;BME280;22847;42.654;23.370;2022-07-29T02:12:07;94804.41;;;23.29;68.99
36932;BME280;22847;42.654;23.370;2022-07-29T02:14:37;94697.25;;;21.98;65.91
36932;BME280;22847;42.654;23.370;2022-07-29T02:17:03;94796.25;;;22.81;65.74
36932;BME280;22847;42.654;23.370;2022-07-29T02:19:32;94809.28;;;22.57;65.80
36932;BME280;22847;42.654;23.370;2022-07-29T02:21:58;94821.84;;;22.06;67.91
36932;BME280;22847;42.654;23.370;2022-07-29T02:24:26;94806.63;;;21.68;69.02
36932;BME280;22847;42.654;23.370;2022-07-29T02:26:53;94808.66;;;21.66;69.86
36932;BME280;22847;42.654;23.370;2022-07-29T02:29:23;94451.63;;;18.33;74.37
36932;BME280;22847;42.654;23.370;2022-07-29T02:31:51;94811.06;;;20.03;76.91
36932;BME280;22847;42.654;23.370;2022-07-29T02:34:18;94836.78;;;19.75;79.09
36932;BME280;22847;42.654;23.370;2022-07-29T02:36:45;94712.03;;;19.31;79.07
36932;BME280;22847;42.654;23.370;2022-07-29T02:39:12;94798.44;;;20.19;77.89
36932;BME280;22847;42.654;23.370;2022-07-29T02:41:47;94789.81;;;20.58;75.47
36932;BME280;22847;42.654;23.370;2022-07-29T02:44:16;94770.16;;;20.19;76.24
36932;BME280;22847;42.654;23.370;2022-07-29T02:46:55;94713.28;;;19.89;76.20
36932;BME280;22847;42.654;23.370;2022-07-29T02:49:57;94772.53;;;20.01;77.51
36932;BME280;22847;42.654;23.370;2022-07-29T02:52:44;94789.03;;;19.96;78.21
36932;BME280;22847;42.654;23.370;2022-07-29T02:55:19;94576.56;;;18.75;77.55
36932;BME280;22847;42.654;23.370;2022-07-29T02:57:51;94788.53;;;20.40;77.67
36932;BME280;22847;42.654;23.370;2022-07-29T03:00:21;94589.41;;;19.38;75.14
36932;BME280;22847;42.654;23.370;2022-07-29T03:02:51;94735.78;;;20.59;74.33
36932;BME280;22847;42.654;23.370;2022-07-29T03:05:20;94800.19;;;20.59;75.28
36932;BME280;22847;42.654;23.370;2022-07-29T03:07:53;94798.44;;;20.19;77.62
36932;BME280;22847;42.654;23.370;2022-07-29T03:10:21;94759.25;;;19.81;78.69
36932;BME280;22847;42.654;23.370;2022-07-29T03:12:47;94797.75;;;19.84;80.29
36932;BME280;22847;42.654;23.370;2022-07-29T03:15:13;94819.78;;;20.04;80.11
36932;BME280;22847;42.654;23.370;2022-07-29T03:17:39;94559.41;;;18.98;78.04
36932;BME280;22847;42.654;23.370;2022-07-29T03:20:06;94793.66;;;20.68;76.55
36932;BME280;22847;42.654;23.370;2022-07-29T03:22:32;94653.38;;;19.68;77.58
36932;BME280;22847;42.654;23.370;2022-07-29T03:25:07;94778.38;;;20.64;77.17
36932;BME280;22847;42.654;23.370;2022-07-29T03:27:34;94622.63;;;19.60;77.74
36932;BME280;22847;42.654;23.370;2022-07-29T03:29:59;94624.03;;;19.43;78.35
36932;BME280;22847;42.654;23.370;2022-07-29T03:32:25;94779.38;;;20.30;79.25
36932;BME280;22847;42.654;23.370;2022-07-29T03:34:50;94793.25;;;20.58;79.17
36932;BME280;22847;42.654;23.370;2022-07-29T03:37:15;94799.97;;;20.34;80.55
36932;BME280;22847;42.654;23.370;2022-07-29T03:39:41;94792.34;;;20.12;81.55
36932;BME280;22847;42.654;23.370;2022-07-29T03:42:10;94796.22;;;20.22;80.25
36932;BME280;22847;42.654;23.370;2022-07-29T03:44:37;94627.38;;;19.17;81.44
36932;BME280;22847;42.654;23.370;2022-07-29T03:47:03;94797.34;;;19.87;82.84
36932;BME280;22847;42.654;23.370;2022-07-29T03:49:30;94761.78;;;19.48;84.43
36932;BME280;22847;42.654;23.370;2022-07-29T03:51:58;94597.13;;;18.79;82.61
36932;BME280;22847;42.654;23.370;2022-07-29T03:54:23;94716.41;;;19.45;82.85
36932;BME280;22847;42.654;23.370;2022-07-29T03:56:49;94859.16;;;20.27;82.11
36932;BME280;22847;42.654;23.370;2022-07-29T03:59:17;94820.13;;;20.42;81.08
36932;BME280;22847;42.654;23.370;2022-07-29T04:01:45;94809.97;;;20.78;78.90
36932;BME280;22847;42.654;23.370;2022-07-29T04:04:11;94783.44;;;20.45;78.94
36932;BME280;22847;42.654;23.370;2022-07-29T04:06:42;94790.41;;;20.66;77.90
36932;BME280;22847;42.654;23.370;2022-07-29T04:09:08;94766.13;;;20.49;77.63
36932;BME280;22847;42.654;23.370;2022-07-29T04:11:34;94831.78;;;20.61;77.80
36932;BME280;22847;42.654;23.370;2022-07-29T04:13:59;94806.31;;;20.66;77.88
36932;BME280;22847;42.654;23.370;2022-07-29T04:16:25;94589.59;;;18.76;79.75
36932;BME280;22847;42.654;23.370;2022-07-29T04:18:50;94815.03;;;20.34;78.65
36932;BME280;22847;42.654;23.370;2022-07-29T04:21:15;94828.31;;;21.52;73.21
36932;BME280;22847;42.654;23.370;2022-07-29T04:23:41;94595.31;;;20.72;70.02
36932;BME280;22847;42.654;23.370;2022-07-29T04:26:10;94809.03;;;21.76;70.26
36932;BME280;22847;42.654;23.370;2022-07-29T04:28:36;94812.16;;;21.60;71.56
36932;BME280;22847;42.654;23.370;2022-07-29T04:31:01;94748.19;;;21.11;71.65
36932;BME280;22847;42.654;23.370;2022-07-29T04:33:27;94752.84;;;21.79;69.92
36932;BME280;22847;42.654;23.370;2022-07-29T04:35:52;94823.19;;;22.91;66.76
36932;BME280;22847;42.654;23.370;2022-07-29T04:38:17;94833.47;;;23.30;63.97
36932;BME280;22847;42.654;23.370;2022-07-29T04:40:43;94788.41;;;23.35;63.78
36932;BME280;22847;42.654;23.370;2022-07-29T04:43:09;94626.81;;;22.45;62.50
36932;BME280;22847;42.654;23.370;2022-07-29T04:45:34;94768.69;;;23.00;63.72
36932;BME280;22847;42.654;23.370;2022-07-29T04:48:00;94861.69;;;23.81;62.42
36932;BME280;22847;42.654;23.370;2022-07-29T04:50:25;94825.13;;;24.24;60.67
36932;BME280;22847;42.654;23.370;2022-07-29T04:52:50;94828.38;;;24.44;59.95
36932;BME280;22847;42.654;23.370;2022-07-29T04:55:16;94822.34;;;24.91;59.01
36932;BME280;22847;42.654;23.370;2022-07-29T04:57:41;94647.25;;;24.20;57.48
36932;BME280;22847;42.654;23.370;2022-07-29T05:00:07;94848.81;;;25.68;56.50
36932;BME280;22847;42.654;23.370;2022-07-29T05:02:33;94822.06;;;25.92;55.40
36932;BME280;22847;42.654;23.370;2022-07-29T05:04:58;94837.72;;;26.00;55.01
36932;BME280;22847;42.654;23.370;2022-07-29T05:07:24;94840.88;;;25.97;55.59
36932;BME280;22847;42.654;23.370;2022-07-29T05:09:49;94789.66;;;25.88;54.53
36932;BME280;22847;42.654;23.370;2022-07-29T05:12:15;94811.03;;;25.53;56.42
36932;BME280;22847;42.654;23.370;2022-07-29T05:14:40;94781.06;;;25.86;54.95
36932;BME280;22847;42.654;23.370;2022-07-29T05:17:06;94828.22;;;26.44;54.26
36932;BME280;22847;42.654;23.370;2022-07-29T05:19:31;94841.75;;;26.26;54.04
36932;BME280;22847;42.654;23.370;2022-07-29T05:21:57;94693.06;;;25.68;53.15
36932;BME280;22847;42.654;23.370;2022-07-29T05:24:22;94758.13;;;26.42;53.82
36932;BME280;22847;42.654;23.370;2022-07-29T05:26:48;94839.16;;;27.16;52.95
36932;BME280;22847;42.654;23.370;2022-07-29T05:29:13;94836.91;;;27.24;51.67
36932;BME280;22847;42.654;23.370;2022-07-29T05:31:38;94831.69;;;27.18;52.30
36932;BME280;22847;42.654;23.370;2022-07-29T05:34:04;94796.81;;;26.96;51.23
36932;BME280;22847;42.654;23.370;2022-07-29T05:36:29;94674.63;;;26.40;51.47
36932;BME280;22847;42.654;23.370;2022-07-29T05:38:55;94834.19;;;27.74;50.56
36932;BME280;22847;42.654;23.370;2022-07-29T05:41:20;94687.13;;;26.68;50.62
36932;BME280;22847;42.654;23.370;2022-07-29T05:43:46;94632.31;;;26.20;50.68
36932;BME280;22847;42.654;23.370;2022-07-29T05:46:11;94847.75;;;27.01;51.41
36932;BME280;22847;42.654;23.370;2022-07-29T05:48:39;94826.75;;;27.26;49.98
36932;BME280;22847;42.654;23.370;2022-07-29T05:51:04;94833.97;;;26.81;50.87
36932;BME280;22847;42.654;23.370;2022-07-29T05:53:30;94807.94;;;26.76;50.99
36932;BME280;22847;42.654;23.370;2022-07-29T05:55:55;94845.84;;;27.63;49.78
36932;BME280;22847;42.654;23.370;2022-07-29T05:58:21;94837.75;;;27.80;49.92
36932;BME280;22847;42.654;23.370;2022-07-29T06:00:46;94844.38;;;28.11;48.62
36932;BME280;22847;42.654;23.370;2022-07-29T06:03:12;94855.31;;;28.09;48.45
36932;BME280;22847;42.654;23.370;2022-07-29T06:05:37;94509.94;;;26.22;48.33
36932;BME280;22847;42.654;23.370;2022-07-29T06:08:03;94759.53;;;27.83;49.32
36932;BME280;22847;42.654;23.370;2022-07-29T06:10:32;94807.53;;;28.23;48.22
36932;BME280;22847;42.654;23.370;2022-07-29T06:12:57;94846.81;;;28.82;47.42
36932;BME280;22847;42.654;23.370;2022-07-29T06:15:23;94849.88;;;28.69;48.17
36932;BME280;22847;42.654;23.370;2022-07-29T06:17:48;94825.88;;;28.58;47.61
36932;BME280;22847;42.654;23.370;2022-07-29T06:20:14;94653.00;;;27.30;48.00
36932;BME280;22847;42.654;23.370;2022-07-29T06:22:39;94872.03;;;28.76;47.54
36932;BME280;22847;42.654;23.370;2022-07-29T06:25:05;94842.88;;;28.42;47.67
36932;BME280;22847;42.654;23.370;2022-07-29T06:27:30;94785.19;;;27.95;48.21
36932;BME280;22847;42.654;23.370;2022-07-29T06:29:56;94832.13;;;28.42;47.45
36932;BME280;22847;42.654;23.370;2022-07-29T06:32:21;94725.97;;;28.24;46.54
36932;BME280;22847;42.654;23.370;2022-07-29T06:34:47;94518.56;;;26.46;47.81
36932;BME280;22847;42.654;23.370;2022-07-29T06:37:13;94745.00;;;27.40;48.85
36932;BME280;22847;42.654;23.370;2022-07-29T06:39:39;94844.94;;;27.58;49.92
36932;BME280;22847;42.654;23.370;2022-07-29T06:42:05;94809.28;;;27.57;49.73
36932;BME280;22847;42.654;23.370;2022-07-29T06:44:31;94645.22;;;27.28;47.47
36932;BME280;22847;42.654;23.370;2022-07-29T06:46:59;94829.13;;;28.81;48.07
36932;BME280;22847;42.654;23.370;2022-07-29T06:49:25;94831.56;;;29.15;45.91
36932;BME280;22847;42.654;23.370;2022-07-29T06:51:51;94693.34;;;28.59;45.68
36932;BME280;22847;42.654;23.370;2022-07-29T06:54:17;94837.97;;;29.41;45.30
36932;BME280;22847;42.654;23.370;2022-07-29T06:56:42;94843.25;;;29.62;45.35
36932;BME280;22847;42.654;23.370;2022-07-29T06:59:10;94830.59;;;29.58;45.28
36932;BME280;22847;42.654;23.370;2022-07-29T07:01:40;94648.59;;;28.37;46.25
36932;BME280;22847;42.654;23.370;2022-07-29T07:04:07;94802.28;;;29.13;46.24
36932;BME280;22847;42.654;23.370;2022-07-29T07:06:36;94807.72;;;29.55;45.48
36932;BME280;22847;42.654;23.370;2022-07-29T07:09:03;94796.31;;;29.38;45.54
36932;BME280;22847;42.654;23.370;2022-07-29T07:11:28;94813.06;;;29.18;45.86
36932;BME280;22847;42.654;23.370;2022-07-29T07:13:54;94787.34;;;28.91;45.74
36932;BME280;22847;42.654;23.370;2022-07-29T07:16:19;94827.63;;;28.96;45.91
36932;BME280;22847;42.654;23.370;2022-07-29T07:18:46;94823.22;;;29.43;45.60
36932;BME280;22847;42.654;23.370;2022-07-29T07:21:12;94694.19;;;28.64;45.11
36932;BME280;22847;42.654;23.370;2022-07-29T07:23:37;94659.81;;;28.61;44.99
36932;BME280;22847;42.654;23.370;2022-07-29T07:26:03;94817.34;;;29.46;43.95
36932;BME280;22847;42.654;23.370;2022-07-29T07:28:30;94812.06;;;30.03;43.31
36932;BME280;22847;42.654;23.370;2022-07-29T07:30:55;94816.00;;;30.43;41.75
36932;BME280;22847;42.654;23.370;2022-07-29T07:33:21;94672.22;;;30.03;41.17
36932;BME280;22847;42.654;23.370;2022-07-29T07:35:46;94814.06;;;30.28;42.22
36932;BME280;22847;42.654;23.370;2022-07-29T07:38:12;94815.25;;;30.63;41.39
36932;BME280;22847;42.654;23.370;2022-07-29T07:40:38;94811.75;;;30.52;41.96
36932;BME280;22847;42.654;23.370;2022-07-29T07:43:22;94815.16;;;30.32;41.67
36932;BME280;22847;42.654;23.370;2022-07-29T07:45:47;94806.50;;;30.20;42.40
36932;BME280;22847;42.654;23.370;2022-07-29T07:48:13;94837.09;;;30.71;41.16
36932;BME280;22847;42.654;23.370;2022-07-29T07:50:38;94797.97;;;30.43;41.46
36932;BME280;22847;42.654;23.370;2022-07-29T07:53:03;94784.84;;;29.95;42.32
36932;BME280;22847;42.654;23.370;2022-07-29T07:55:29;94629.78;;;28.64;43.37
36932;BME280;22847;42.654;23.370;2022-07-29T07:57:55;94660.47;;;29.15;41.74
36932;BME280;22847;42.654;23.370;2022-07-29T08:00:21;94778.75;;;29.67;41.91
36932;BME280;22847;42.654;23.370;2022-07-29T08:02:46;94805.31;;;30.01;41.36
36932;BME280;22847;42.654;23.370;2022-07-29T08:05:13;94793.88;;;30.26;40.78
36932;BME280;22847;42.654;23.370;2022-07-29T08:07:43;94827.97;;;30.77;39.55
36932;BME280;22847;42.654;23.370;2022-07-29T08:10:09;94795.06;;;30.60;40.03
36932;BME280;22847;42.654;23.370;2022-07-29T08:12:34;94775.44;;;30.85;39.55
36932;BME280;22847;42.654;23.370;2022-07-29T08:15:00;94623.47;;;29.85;39.36
36932;BME280;22847;42.654;23.370;2022-07-29T08:17:25;94791.94;;;30.11;39.54
36932;BME280;22847;42.654;23.370;2022-07-29T08:19:51;94814.56;;;30.20;40.10
36932;BME280;22847;42.654;23.370;2022-07-29T08:22:17;94789.28;;;29.74;40.65
36932;BME280;22847;42.654;23.370;2022-07-29T08:24:42;94784.22;;;29.36;41.57
36932;BME280;22847;42.654;23.370;2022-07-29T08:27:12;94799.03;;;30.42;40.14
36932;BME280;22847;42.654;23.370;2022-07-29T08:29:38;94762.94;;;30.28;39.66
36932;BME280;22847;42.654;23.370;2022-07-29T08:32:04;94757.28;;;30.30;39.48
36932;BME280;22847;42.654;23.370;2022-07-29T08:34:30;94800.72;;;30.58;39.25
36932;BME280;22847;42.654;23.370;2022-07-29T08:36:55;94794.84;;;30.87;37.90
36932;BME280;22847;42.654;23.370;2022-07-29T08:39:21;94778.75;;;31.02;37.46
36932;BME280;22847;42.654;23.370;2022-07-29T08:41:47;94794.91;;;31.22;37.02
36932;BME280;22847;42.654;23.370;2022-07-29T08:44:15;94605.78;;;29.99;37.38
36932;BME280;22847;42.654;23.370;2022-07-29T08:46:41;94688.75;;;30.47;36.57
36932;BME280;22847;42.654;23.370;2022-07-29T08:49:07;94705.72;;;30.83;36.48
36932;BME280;22847;42.654;23.370;2022-07-29T08:51:33;94652.66;;;30.58;35.88
36932;BME280;22847;42.654;23.370;2022-07-29T08:54:00;94759.81;;;30.72;36.48
36932;BME280;22847;42.654;23.370;2022-07-29T08:56:27;94802.44;;;31.35;35.64
36932;BME280;22847;42.654;23.370;2022-07-29T08:58:52;94619.00;;;30.86;35.00
36932;BME280;22847;42.654;23.370;2022-07-29T09:01:24;94757.59;;;31.90;34.45
36932;BME280;22847;42.654;23.370;2022-07-29T09:03:49;94776.78;;;32.53;33.40
36932;BME280;22847;42.654;23.370;2022-07-29T09:06:18;94801.88;;;31.79;34.03
36932;BME280;22847;42.654;23.370;2022-07-29T09:08:46;94625.69;;;31.24;33.64
36932;BME280;22847;42.654;23.370;2022-07-29T09:11:13;94777.09;;;31.57;34.73
36932;BME280;22847;42.654;23.370;2022-07-29T09:13:39;94733.75;;;31.23;35.33
36932;BME280;22847;42.654;23.370;2022-07-29T09:16:05;94689.81;;;30.72;36.01
36932;BME280;22847;42.654;23.370;2022-07-29T09:21:01;94717.44;;;30.22;36.65
36932;BME280;22847;42.654;23.370;2022-07-29T09:24:11;94770.31;;;30.63;36.81
36932;BME280;22847;42.654;23.370;2022-07-29T09:26:43;94771.56;;;30.30;37.52
36932;BME280;22847;42.654;23.370;2022-07-29T09:29:13;94760.63;;;30.52;37.20
36932;BME280;22847;42.654;23.370;2022-07-29T09:31:43;94631.41;;;29.02;38.58
36932;BME280;22847;42.654;23.370;2022-07-29T09:34:10;94756.78;;;29.76;39.35
36932;BME280;22847;42.654;23.370;2022-07-29T09:36:47;94775.56;;;30.28;38.21
36932;BME280;22847;42.654;23.370;2022-07-29T09:39:14;94731.56;;;30.74;38.15
36932;BME280;22847;42.654;23.370;2022-07-29T09:41:54;94770.63;;;30.97;37.84
36932;BME280;22847;42.654;23.370;2022-07-29T09:44:21;94775.78;;;31.24;36.23
36932;BME280;22847;42.654;23.370;2022-07-29T09:49:19;94719.19;;;30.83;36.06
36932;BME280;22847;42.654;23.370;2022-07-29T09:51:45;94781.44;;;31.27;36.80
36932;BME280;22847;42.654;23.370;2022-07-29T09:54:24;94769.22;;;31.85;35.53
36932;BME280;22847;42.654;23.370;2022-07-29T09:56:51;94776.84;;;31.13;37.19
36932;BME280;22847;42.654;23.370;2022-07-29T09:59:17;94769.66;;;30.31;38.64
36932;BME280;22847;42.654;23.370;2022-07-29T10:01:42;94741.81;;;30.82;37.20
36932;BME280;22847;42.654;23.370;2022-07-29T10:04:08;94582.94;;;30.11;36.71
36932;BME280;22847;42.654;23.370;2022-07-29T10:06:34;94738.31;;;30.87;37.45
36932;BME280;22847;42.654;23.370;2022-07-29T10:09:08;94571.66;;;30.35;37.63
36932;BME280;22847;42.654;23.370;2022-07-29T10:11:34;94712.16;;;31.33;37.34
36932;BME280;22847;42.654;23.370;2022-07-29T10:14:02;94740.75;;;31.04;36.49
36932;BME280;22847;42.654;23.370;2022-07-29T10:16:27;94720.00;;;30.84;37.44
36932;BME280;22847;42.654;23.370;2022-07-29T10:18:58;94553.53;;;29.75;36.91
36932;BME280;22847;42.654;23.370;2022-07-29T10:21:25;94763.59;;;30.76;37.78
36932;BME280;22847;42.654;23.370;2022-07-29T10:23:51;94739.78;;;30.27;39.52
36932;BME280;22847;42.654;23.370;2022-07-29T10:26:17;94719.16;;;30.63;38.62
36932;BME280;22847;42.654;23.370;2022-07-29T10:28:42;94720.00;;;31.24;37.70
36932;BME280;22847;42.654;23.370;2022-07-29T10:31:22;94577.53;;;30.87;37.18
36932;BME280;22847;42.654;23.370;2022-07-29T10:34:19;94717.81;;;32.26;35.84
36932;BME280;22847;42.654;23.370;2022-07-29T10:37:51;94706.19;;;32.30;35.26
36932;BME280;22847;42.654;23.370;2022-07-29T10:42:48;94671.66;;;31.68;34.68
36932;BME280;22847;42.654;23.370;2022-07-29T10:45:16;94543.81;;;31.10;34.15
36932;BME280;22847;42.654;23.370;2022-07-29T10:47:42;94662.78;;;31.53;34.37
36932;BME280;22847;42.654;23.370;2022-07-29T10:50:08;94638.53;;;31.58;33.44
36932;BME280;22847;42.654;23.370;2022-07-29T10:55:37;94694.69;;;32.15;33.63
36932;BME280;22847;42.654;23.370;2022-07-29T10:58:20;94685.69;;;32.24;33.25
36932;BME280;22847;42.654;23.370;2022-07-29T11:00:51;94685.59;;;31.85;34.42
36932;BME280;22847;42.654;23.370;2022-07-29T11:03:45;94695.19;;;31.42;35.15
36932;BME280;22847;42.654;23.370;2022-07-29T11:06:12;94696.50;;;31.50;34.02
36932;BME280;22847;42.654;23.370;2022-07-29T11:08:38;94674.94;;;31.60;34.02
36932;BME280;22847;42.654;23.370;2022-07-29T11:16:14;94699.75;;;31.42;34.66
36932;BME280;22847;42.654;23.370;2022-07-29T11:21:37;94505.16;;;30.40;34.28
36932;BME280;22847;42.654;23.370;2022-07-29T11:24:20;94626.00;;;30.87;35.46
36932;BME280;22847;42.654;23.370;2022-07-29T11:27:06;94452.22;;;30.10;34.43
36932;BME280;22847;42.654;23.370;2022-07-29T11:29:32;94663.09;;;31.36;35.39
36932;BME280;22847;42.654;23.370;2022-07-29T11:32:11;94669.63;;;31.15;34.65
36932;BME280;22847;42.654;23.370;2022-07-29T11:34:37;94473.97;;;30.39;34.63
36932;BME280;22847;42.654;23.370;2022-07-29T11:47:28;94617.06;;;31.17;33.30
36932;BME280;22847;42.654;23.370;2022-07-29T11:49:55;94631.56;;;31.41;34.06
36932;BME280;22847;42.654;23.370;2022-07-29T11:52:22;94654.91;;;31.71;33.60
36932;BME280;22847;42.654;23.370;2022-07-29T11:54:49;94650.25;;;31.92;32.97
36932;BME280;22847;42.654;23.370;2022-07-29T11:57:19;94638.78;;;32.15;32.48
36932;BME280;22847;42.654;23.370;2022-07-29T11:59:46;94635.97;;;32.36;32.51
36932;BME280;22847;42.654;23.370;2022-07-29T12:02:13;94634.72;;;32.23;32.10
36932;BME280;22847;42.654;23.370;2022-07-29T12:04:52;94534.91;;;31.74;31.68
36932;BME280;22847;42.654;23.370;2022-07-29T12:07:18;94629.66;;;32.50;31.99
36932;BME280;22847;42.654;23.370;2022-07-29T12:09:51;94469.25;;;31.50;31.71
36932;BME280;22847;42.654;23.370;2022-07-29T12:12:17;94601.53;;;32.22;32.41
36932;BME280;22847;42.654;23.370;2022-07-29T12:14:43;94609.00;;;32.30;32.20
36932;BME280;22847;42.654;23.370;2022-07-29T12:17:32;94637.66;;;32.65;31.98
36932;BME280;22847;42.654;23.370;2022-07-29T12:20:00;94614.28;;;32.51;31.50
36932;BME280;22847;42.654;23.370;2022-07-29T12:22:27;94461.19;;;31.44;31.33
36932;BME280;22847;42.654;23.370;2022-07-29T12:24:54;94641.38;;;32.36;31.81
36932;BME280;22847;42.654;23.370;2022-07-29T12:27:19;94639.44;;;32.41;31.43
36932;BME280;22847;42.654;23.370;2022-07-29T12:29:57;94635.25;;;31.66;32.04
36932;BME280;22847;42.654;23.370;2022-07-29T12:32:40;94630.75;;;31.36;33.17
36932;BME280;22847;42.654;23.370;2022-07-29T12:35:09;94666.13;;;31.14;34.62
36932;BME280;22847;42.654;23.370;2022-07-29T12:37:37;94629.22;;;31.15;33.26
36932;BME280;22847;42.654;23.370;2022-07-29T12:40:04;94638.00;;;31.56;32.37
36932;BME280;22847;42.654;23.370;2022-07-29T12:42:30;94631.25;;;32.07;31.69
36932;BME280;22847;42.654;23.370;2022-07-29T12:44:56;94626.47;;;32.43;31.32
36932;BME280;22847;42.654;23.370;2022-07-29T12:47:21;94614.19;;;32.56;31.50
36932;BME280;22847;42.654;23.370;2022-07-29T12:49:48;94515.34;;;31.97;31.30
36932;BME280;22847;42.654;23.370;2022-07-29T12:52:44;94620.25;;;32.82;30.52
36932;BME280;22847;42.654;23.370;2022-07-29T12:55:10;94603.13;;;32.91;30.48
36932;BME280;22847;42.654;23.370;2022-07-29T12:57:46;94466.97;;;32.06;30.80
36932;BME280;22847;42.654;23.370;2022-07-29T13:00:13;94529.63;;;32.65;30.58
36932;BME280;22847;42.654;23.370;2022-07-29T13:02:40;94455.69;;;32.56;30.31
36932;BME280;22847;42.654;23.370;2022-07-29T13:05:07;94465.06;;;32.06;30.16
36932;BME280;22847;42.654;23.370;2022-07-29T13:07:37;94449.31;;;31.45;31.59
36932;BME280;22847;42.654;23.370;2022-07-29T13:15:28;94584.38;;;32.42;31.65
36932;BME280;22847;42.654;23.370;2022-07-29T13:17:54;94458.31;;;31.75;31.53
36932;BME280;22847;42.654;23.370;2022-07-29T13:20:23;94571.38;;;32.78;30.61
36932;BME280;22847;42.654;23.370;2022-07-29T13:22:49;94580.56;;;32.04;32.96
36932;BME280;22847;42.654;23.370;2022-07-29T13:25:23;94589.84;;;32.32;31.60
36932;BME280;22847;42.654;23.370;2022-07-29T13:27:49;94597.25;;;32.50;32.19
36932;BME280;22847;42.654;23.370;2022-07-29T13:30:15;94601.03;;;32.83;31.08
36932;BME280;22847;42.654;23.370;2022-07-29T13:32:40;94610.63;;;32.99;30.86
36932;BME280;22847;42.654;23.370;2022-07-29T13:35:07;94561.31;;;32.55;30.90
36932;BME280;22847;42.654;23.370;2022-07-29T13:37:34;94577.03;;;33.05;30.55
36932;BME280;22847;42.654;23.370;2022-07-29T13:40:03;94555.78;;;32.70;30.40